Hlavní strana
METAR-TAF:

METAR-TAF

Letiště :

Churchill, Manitoba, Kanada

zeměpisná šířka: 58-44N, zeměpisná délka: 094-04W, výška: 28 m

Aktuální stav počasí

Zpráva byla vytvořena před 35 minutami, v 18:00 UTC
Západní vítr 7 kt
Teplota -29°C
Vlhkost vzduchu 75%
Tlak 1032 hPa
Viditelnost: 24.1 km
Polojasno ve výšce 700 ft

METAR: CYYQ 211800Z 27007KT 15SM SCT007 M29/M32 A3048 RMK ST3 SLP326

Čas: 12:35 (18:35 UTC)

Předpověď počasí

Zpráva byla vytvořena před 57 minutami, v 17:38 UTC
Předpověď platná od 21 v 18 UTC do 22 v 18 UTC
Západoseverozápadní vítr 8 kt
Viditelnost: 6.4 km
Oblačno až skoro zataženo ve výšce 500 ft
slabé sněžení
Dočasný
od 21 v 18 UTC do 22 v 08 UTC
Viditelnost: 10 km
Polojasno ve výšce 800 ft
Od 22 v 0800 UTC
Západojihozápadní vítr 5 kt
Viditelnost: 10 km
Polojasno ve výšce 800 ft
Oblačno až skoro zataženo ve výšce 9000 ft

TAF: CYYQ 211738Z 2118/2218 29008KT 4SM -SN BKN005 TEMPO 2118/2208 P6SM NSW SCT008 FM220800 24005KT P6SM SCT008 BKN090 RMK NXT FCST BY 220000Z

Stav a předpovědi počasí z více než 4 000 letišť (zprávy METAR a TAF).

Červené a žluté tečky na mapě představují dostupné meteorologické stanice.

Když kurzor umístíte na tečku, zobrazí se název stanice.

Pak kliknutím zobrazíte stav a předpověď počasí.

Chcete-li změnit mapu, kliknutím na zelené tlačítko se znaménkem +mapu přiblížíte, kliknutím na zelené tlačítko se znaménkem – mapu oddálíte a kliknutím na zelené šipky přejdete na sousední mapy.


METAR-TAF: